No data was retrieved for https://query.yahooapis.com/v1/public/yql?q=select+%2A+from+weather.forecast+where+woeid%3D973505&format=xml&u=c


Lesvos Island / Mitilini / Pligoni / SV8DTD



Thunder radar more information blitzortung!


Rain radar more information rain snow radar


Visit our other weather sites:

Template documentation
and downloads

And another site



There is a communication problem. Go directly to the Meteoalarm site : www.meteoalarm.eu and check the Weather-warnings there .

Nearby METAR Reports

   
EHVK - Volkel Rnlafb, Netherlands
Distance from station: SW 18 km
Updated: Thu-Aug-2022 18:55
Overcast  
Overcast  
   Wind: North 5.6 km/h
Wind: North 5.6 km/h
Temperature: 26°C
Dew Point: 16°C
Humidity: 54%
Barometer: 1012 hPa
Clouds: Overcast
Visibility: More than 10 km
Cloud details: Few Clouds 3800 ft,
Mostly Cloudy 4400 ft,
Overcast 7200 ft
EHVK 181555Z AUTO 35003KT 260V070 9999 FEW038 BKN044 OVC072 26/16 Q1012 BLU
EDLV - Niederrhein, Germany
Distance from station: SE 25 km
Updated: Thu-Aug-2022 18:50
Few Clouds  
Few Clouds  
   Wind: WNW 11.1 km/h
Wind: WNW 11.1 km/h
Temperature: 26°C
Dew Point: 16°C
Humidity: 54%
Barometer: 1013 hPa
Clouds: Few Clouds
Visibility: More than 10 km
Cloud details: Few Clouds 4000 ft
EDLV 181550Z 30006KT 260V350 9999 FEW040 26/16 Q1013
EHDL - Deelen Rnlafb, Netherlands
Distance from station: N 35 km
Updated: Thu-Aug-2022 18:55
Partly Cloudy  
Partly Cloudy  
   Wind: varies 9.3 km/h
Wind: varies 9.3 km/h
Temperature: 24°C
Dew Point: 17°C
Humidity: 65%
Barometer: 1013 hPa
Clouds: Partly Cloudy
Visibility: More than 10 km
Cloud details: Partly Cloudy 2700 ft,
Partly Cloudy 4100 ft
EHDL 181555Z AUTO VRB05KT 9999 SCT027 SCT041 24/17 Q1013 BLU
EHEH - Eindhoven Rnlafb, Netherlands
Distance from station: SW 48 km
Updated: Thu-Aug-2022 18:55
Clear  
Clear  
   Wind: WSW 11.1 km/h
Wind: WSW 11.1 km/h
Temperature: 25°C
Dew Point: 16°C
Humidity: 57%
Barometer: 1013 hPa
Clouds: Clear
Visibility: More than 10 km
Cloud details: Clear
EHEH 181555Z AUTO 24006KT 230V320 9999 NCD 25/16 Q1013 BLU NOSIG
EHGR - Gilze-Rijen Rnla, Netherlands
Distance from station: WSW 70 km
Updated: Thu-Aug-2022 18:55
Overcast  
Overcast  
   Wind: West 5.6 km/h
Wind: West 5.6 km/h
Temperature: 25°C
Dew Point: 17°C
Humidity: 61%
Barometer: 1013 hPa
Clouds: Overcast
Visibility: More than 10 km
Cloud details: Partly Cloudy 4500 ft,
Mostly Cloudy 5000 ft,
Overcast 5600 ft
EHGR 181555Z AUTO 27003KT 270V080 9999 SCT045 BKN050 OVC056 25/17 Q1013 BLU
EBBL - Kleine-Brogel(Ba, Belgium
Distance from station: SSW 71 km
Updated: Thu-Aug-2022 18:55
Few Clouds  
Few Clouds  
   Wind: NNW 5.6 km/h
Wind: NNW 5.6 km/h
Temperature: 26°C
Dew Point: 15°C
Humidity: 51%
Barometer: 1013 hPa
Clouds: Few Clouds
Visibility: More than 10 km
Cloud details: Few Clouds 4200 ft
EBBL 181555Z AUTO 34003KT 9999 FEW042/// 26/15 Q1013 BLU

Script developed by  Saratoga-weather.org Adapted for the template by  Weerstation Leuven

You find our weather info also at:

European Weather Network

Citizen Weather Observer Program (CWOP)

Equipment we use:

Weather-station
Davis VP2

Weather-program
Meteohub

Davis VP2

Meteohub